createdAt,value
2018-07-02T00:02:12.622Z,1.53
2018-07-02T00:04:40.738Z,1.80
2018-07-02T00:07:23.938Z,2.00
2018-07-02T00:09:52.544Z,1.73
2018-07-02T00:12:21.544Z,1.60
2018-07-02T00:14:50.745Z,1.80
2018-07-02T00:17:18.872Z,1.70
2018-07-02T00:19:47.186Z,2.00
2018-07-02T00:22:15.665Z,1.50
2018-07-02T00:24:43.777Z,1.70
2018-07-02T00:27:11.941Z,1.60
2018-07-02T00:29:40.093Z,2.20
2018-07-02T00:32:08.416Z,2.10
2018-07-02T00:34:36.713Z,1.87
2018-07-02T00:37:04.865Z,1.60
2018-07-02T00:39:33.001Z,1.60
2018-07-02T00:42:01.139Z,1.50
2018-07-02T00:44:29.262Z,1.50
2018-07-02T00:46:57.381Z,1.40
2018-07-02T00:49:25.502Z,1.70
2018-07-02T00:51:53.622Z,1.70
2018-07-02T00:54:21.756Z,1.63
2018-07-02T00:56:49.873Z,1.60
2018-07-02T00:59:18.009Z,1.60
2018-07-02T01:01:46.119Z,1.17
2018-07-02T01:04:14.258Z,1.50
2018-07-02T01:06:42.365Z,1.37
2018-07-02T01:09:10.746Z,1.40
2018-07-02T01:11:38.881Z,1.37
2018-07-02T01:14:07.106Z,1.40
2018-07-02T01:16:35.233Z,1.53
2018-07-02T01:19:03.372Z,1.50
2018-07-02T01:21:31.498Z,1.47
2018-07-02T01:23:59.645Z,1.60
2018-07-02T01:26:28.402Z,1.47
2018-07-02T01:28:56.526Z,1.50
2018-07-02T01:31:24.639Z,1.53
2018-07-02T01:33:52.758Z,1.47
2018-07-02T01:36:20.875Z,1.50
2018-07-02T01:38:49.004Z,1.57
2018-07-02T01:41:17.120Z,1.60
2018-07-02T01:43:45.241Z,1.40
2018-07-02T01:46:13.365Z,1.33
2018-07-02T01:48:41.485Z,1.30
2018-07-02T01:51:09.598Z,1.73
2018-07-02T01:53:37.709Z,1.70
2018-07-02T01:56:05.825Z,1.47
2018-07-02T01:58:33.966Z,1.47
2018-07-02T02:01:02.086Z,1.50
2018-07-02T02:03:30.225Z,1.40
2018-07-02T02:05:58.387Z,1.20
2018-07-02T02:08:26.486Z,1.30
2018-07-02T02:10:54.916Z,1.50
2018-07-02T02:13:23.058Z,1.43
2018-07-02T02:15:51.194Z,1.70
2018-07-02T02:18:19.353Z,1.63
2018-07-02T02:20:47.457Z,1.60
2018-07-02T02:23:15.566Z,1.50
2018-07-02T02:25:43.681Z,1.60
2018-07-02T02:28:11.806Z,1.40
2018-07-02T02:30:39.926Z,1.40
2018-07-02T02:33:08.033Z,1.23
2018-07-02T02:35:36.165Z,1.40
2018-07-02T02:38:04.396Z,1.50
2018-07-02T02:40:32.505Z,1.50
2018-07-02T02:43:00.623Z,1.43
2018-07-02T02:45:28.744Z,1.50
2018-07-02T02:47:56.849Z,1.40
2018-07-02T02:50:24.967Z,1.50
2018-07-02T02:52:53.091Z,1.60
2018-07-02T02:55:21.235Z,1.67
2018-07-02T02:57:49.345Z,1.40
2018-07-02T03:00:17.476Z,1.53
2018-07-02T03:02:45.578Z,1.70
2018-07-02T03:05:13.699Z,1.47
2018-07-02T03:07:41.803Z,1.40
2018-07-02T03:10:09.926Z,1.40
2018-07-02T03:12:38.041Z,2.30
2018-07-02T03:15:06.278Z,1.40
2018-07-02T03:17:34.397Z,1.40
2018-07-02T03:20:02.561Z,1.50
2018-07-02T03:22:30.677Z,1.40
2018-07-02T03:24:58.806Z,1.70
2018-07-02T03:27:26.903Z,1.80
2018-07-02T03:29:55.030Z,1.70
2018-07-02T03:32:23.129Z,1.67
2018-07-02T03:34:51.295Z,1.57
2018-07-02T03:37:19.439Z,1.57
2018-07-02T03:39:47.566Z,1.50
2018-07-02T03:42:15.689Z,1.47
2018-07-02T03:44:43.813Z,1.70
2018-07-02T03:47:11.927Z,1.30
2018-07-02T03:49:40.046Z,1.50
2018-07-02T03:52:08.191Z,1.80
2018-07-02T03:54:36.312Z,1.70
2018-07-02T03:57:04.440Z,1.33
2018-07-02T03:59:32.592Z,1.40
2018-07-02T04:02:00.709Z,1.93
2018-07-02T04:04:28.853Z,1.63
2018-07-02T04:06:57.993Z,1.80
2018-07-02T04:09:26.133Z,1.60
2018-07-02T04:11:54.254Z,1.70
2018-07-02T04:14:22.386Z,1.80
2018-07-02T04:16:50.510Z,1.70
2018-07-02T04:19:19.706Z,1.80
2018-07-02T04:21:47.822Z,1.70
2018-07-02T04:24:15.913Z,1.50
2018-07-02T04:26:44.057Z,1.60
2018-07-02T04:29:12.180Z,1.80
2018-07-02T04:31:40.329Z,1.63
2018-07-02T04:34:08.488Z,1.80
2018-07-02T04:36:36.576Z,1.80
2018-07-02T04:39:07.293Z,1.70
2018-07-02T04:41:35.492Z,1.37
2018-07-02T04:44:03.741Z,1.20
2018-07-02T04:46:31.902Z,1.27
2018-07-02T04:49:00.027Z,1.00
2018-07-02T04:51:28.265Z,1.10
2018-07-02T04:53:56.442Z,1.00
2018-07-02T04:56:24.656Z,1.03
2018-07-02T04:58:52.789Z,1.40
2018-07-02T05:01:20.937Z,1.33
2018-07-02T05:03:49.103Z,1.30
2018-07-02T05:06:17.230Z,1.27
2018-07-02T05:08:45.380Z,1.10
2018-07-02T05:11:13.562Z,1.33
2018-07-02T05:13:41.693Z,1.23
2018-07-02T05:16:09.815Z,1.23
2018-07-02T05:18:37.921Z,1.30
2018-07-02T05:21:06.030Z,1.30
2018-07-02T05:23:34.569Z,1.57
2018-07-02T05:26:02.697Z,1.30
2018-07-02T05:28:30.800Z,1.10
2018-07-02T05:30:58.665Z,1.30
2018-07-02T05:33:26.780Z,1.17
2018-07-02T05:35:54.881Z,1.27
2018-07-02T05:38:23.018Z,1.30
2018-07-02T05:40:51.288Z,1.40
2018-07-02T05:43:19.463Z,1.40
2018-07-02T05:45:47.622Z,2.10
2018-07-02T05:48:15.742Z,2.30
2018-07-02T05:50:43.887Z,1.20
2018-07-02T05:53:12.015Z,1.20
2018-07-02T05:55:40.144Z,1.07
2018-07-02T05:58:08.278Z,1.23
2018-07-02T06:00:36.459Z,1.30
2018-07-02T06:03:04.756Z,1.17
2018-07-02T06:05:33.156Z,1.20
2018-07-02T06:08:01.588Z,1.00
2018-07-02T06:10:29.967Z,1.40
2018-07-02T06:12:58.433Z,1.03
2018-07-02T06:15:26.523Z,1.07
2018-07-02T06:17:54.738Z,1.20
2018-07-02T06:20:22.865Z,1.00
2018-07-02T06:22:50.990Z,1.30
2018-07-02T06:25:19.141Z,1.13
2018-07-02T06:27:47.250Z,1.10
2018-07-02T06:30:15.390Z,1.10
2018-07-02T06:32:43.522Z,1.20
2018-07-02T06:35:11.441Z,1.10
2018-07-02T06:37:39.568Z,1.20
2018-07-02T06:40:07.705Z,1.03
2018-07-02T06:42:35.890Z,1.20
2018-07-02T06:45:04.039Z,1.07
2018-07-02T06:47:32.187Z,1.00
2018-07-02T06:50:00.331Z,0.97
2018-07-02T06:52:28.413Z,1.20
2018-07-02T06:54:56.586Z,1.40
2018-07-02T06:57:25.513Z,1.30
2018-07-02T06:59:53.634Z,1.20
2018-07-02T07:02:21.830Z,1.10
2018-07-02T07:04:50.003Z,0.80
2018-07-02T07:07:18.130Z,1.20
2018-07-02T07:09:46.281Z,1.30
2018-07-02T07:12:14.412Z,1.30
2018-07-02T07:14:42.561Z,1.00
2018-07-02T07:17:10.467Z,1.20
2018-07-02T07:19:38.605Z,0.90
2018-07-02T07:22:10.662Z,1.10
2018-07-02T07:24:38.556Z,1.17
2018-07-02T07:27:06.682Z,1.50
2018-07-02T07:29:34.823Z,0.90
2018-07-02T07:32:02.949Z,1.20
2018-07-02T07:34:30.877Z,1.00
2018-07-02T07:36:58.994Z,1.20
2018-07-02T07:39:27.114Z,1.10
2018-07-02T07:41:55.273Z,1.10
2018-07-02T07:44:23.456Z,1.30
2018-07-02T07:46:51.659Z,1.03
2018-07-02T07:49:19.787Z,1.10
2018-07-02T07:51:48.139Z,1.33
2018-07-02T07:54:16.041Z,0.90
2018-07-02T07:56:44.385Z,1.10
2018-07-02T07:59:12.520Z,1.20
2018-07-02T08:01:53.083Z,1.13
2018-07-02T08:04:21.209Z,1.10
2018-07-02T08:06:49.337Z,1.07
2018-07-02T08:09:17.228Z,0.90
2018-07-02T08:11:45.352Z,0.90
2018-07-02T08:14:13.506Z,1.07
2018-07-02T08:16:41.641Z,0.90
2018-07-02T08:19:09.784Z,1.00
2018-07-02T08:21:41.858Z,1.20
2018-07-02T08:24:09.974Z,1.03
2018-07-02T08:26:38.094Z,1.00
2018-07-02T08:29:06.208Z,1.13
2018-07-02T08:31:34.328Z,0.83
2018-07-02T08:34:02.486Z,1.00
2018-07-02T08:36:30.629Z,1.20
2018-07-02T08:38:58.801Z,0.80
2018-07-02T08:41:26.944Z,1.30
2018-07-02T08:43:55.077Z,1.10
2018-07-02T08:46:23.219Z,1.20
2018-07-02T08:48:51.359Z,1.10
2018-07-02T08:51:19.497Z,1.30
2018-07-02T08:53:47.862Z,1.20
2018-07-02T08:56:16.014Z,0.93
2018-07-02T08:58:44.165Z,1.10
2018-07-02T09:01:12.347Z,1.43
2018-07-02T09:03:40.457Z,0.90
2018-07-02T09:06:08.610Z,1.20
2018-07-02T09:08:53.396Z,0.90
2018-07-02T09:11:21.745Z,1.13
2018-07-02T09:13:49.960Z,0.90
2018-07-02T09:16:18.102Z,1.30
2018-07-02T09:18:46.271Z,1.07
2018-07-02T09:21:14.409Z,1.43
2018-07-02T09:23:42.586Z,1.00
2018-07-02T09:26:10.636Z,1.10
2018-07-02T09:28:38.776Z,1.10
2018-07-02T09:31:06.911Z,1.20
2018-07-02T09:33:35.033Z,1.07
2018-07-02T09:36:03.173Z,1.33
2018-07-02T09:38:31.303Z,0.80
2018-07-02T09:40:59.411Z,1.30
2018-07-02T09:43:27.529Z,1.30
2018-07-02T09:45:55.656Z,1.00
2018-07-02T09:48:23.770Z,1.00
2018-07-02T09:50:51.899Z,1.10
2018-07-02T09:53:20.009Z,1.27
2018-07-02T09:55:48.154Z,0.90
2018-07-02T09:58:16.349Z,1.10
2018-07-02T10:00:44.485Z,1.27
2018-07-02T10:03:12.664Z,1.10
2018-07-02T10:05:40.795Z,1.00
2018-07-02T10:08:08.913Z,1.07
2018-07-02T10:10:37.061Z,1.00
2018-07-02T10:13:05.200Z,1.30
2018-07-02T10:15:33.342Z,0.83
2018-07-02T10:18:01.884Z,1.07
2018-07-02T10:20:30.170Z,1.07
2018-07-02T10:22:58.356Z,1.00
2018-07-02T10:25:26.469Z,1.10
2018-07-02T10:27:54.595Z,1.00
2018-07-02T10:30:22.719Z,1.17
2018-07-02T10:32:50.855Z,1.10
2018-07-02T10:35:19.026Z,1.03
2018-07-02T10:37:47.150Z,0.90
2018-07-02T10:40:15.026Z,1.30
2018-07-02T10:42:43.160Z,0.80
2018-07-02T10:45:11.306Z,1.10
2018-07-02T10:47:39.428Z,1.10
2018-07-02T10:50:07.680Z,0.90
2018-07-02T10:52:35.805Z,1.03
2018-07-02T10:55:03.950Z,1.00
2018-07-02T10:57:31.872Z,1.23
2018-07-02T11:00:00.026Z,0.93
2018-07-02T11:02:28.118Z,0.93
2018-07-02T11:04:56.253Z,0.70
2018-07-02T11:07:24.159Z,1.00
2018-07-02T11:09:52.325Z,1.20
2018-07-02T11:12:20.454Z,1.00
2018-07-02T11:14:48.352Z,1.20
2018-07-02T11:17:16.479Z,0.90
2018-07-02T11:19:45.650Z,0.97
2018-07-02T11:22:13.777Z,1.10
2018-07-02T11:24:41.897Z,0.97
2018-07-02T11:27:10.032Z,0.97
2018-07-02T11:29:38.177Z,0.90
2018-07-02T11:32:06.323Z,1.03
2018-07-02T11:34:34.473Z,1.13
2018-07-02T11:37:02.615Z,1.17
2018-07-02T11:39:30.757Z,1.30
2018-07-02T11:41:58.960Z,1.10
2018-07-02T11:44:27.080Z,1.30
2018-07-02T11:46:55.239Z,1.57
2018-07-02T11:49:23.842Z,1.33
2018-07-02T11:51:52.091Z,1.10
2018-07-02T11:54:20.249Z,1.13
2018-07-02T11:56:48.356Z,0.93
2018-07-02T11:59:16.507Z,1.10
2018-07-02T12:01:44.617Z,1.10
2018-07-02T12:04:12.838Z,1.00
2018-07-02T12:06:40.910Z,1.03
2018-07-02T12:09:10.374Z,1.00
2018-07-02T12:11:38.497Z,0.90
2018-07-02T12:14:06.666Z,1.10
2018-07-02T12:16:34.863Z,1.23
2018-07-02T12:19:03.004Z,1.20
2018-07-02T12:21:31.115Z,1.17
2018-07-02T12:23:59.250Z,1.00
2018-07-02T12:26:27.374Z,1.53
2018-07-02T12:28:55.511Z,1.00
2018-07-02T12:31:23.669Z,1.17
2018-07-02T12:33:51.767Z,1.10
2018-07-02T12:36:19.914Z,1.20
2018-07-02T12:38:48.094Z,1.27
2018-07-02T12:41:16.265Z,1.07
2018-07-02T12:43:44.356Z,1.20
2018-07-02T12:46:12.480Z,1.30
2018-07-02T12:48:40.602Z,1.30
2018-07-02T12:51:08.743Z,1.17
2018-07-02T12:53:36.853Z,1.10
2018-07-02T12:56:05.117Z,1.50
2018-07-02T12:58:33.213Z,1.30
2018-07-02T13:01:01.362Z,1.30
2018-07-02T13:03:29.510Z,1.23
2018-07-02T13:05:57.641Z,1.50
2018-07-02T13:08:25.791Z,1.40
2018-07-02T13:10:53.943Z,1.20
2018-07-02T13:13:22.049Z,1.40
2018-07-02T13:15:50.233Z,1.20
2018-07-02T13:18:18.109Z,1.30
2018-07-02T13:20:46.489Z,1.23
2018-07-02T13:23:14.415Z,1.10
2018-07-02T13:25:42.544Z,1.40
2018-07-02T13:28:10.738Z,1.33
2018-07-02T13:30:38.850Z,1.17
2018-07-02T13:33:06.993Z,1.23
2018-07-02T13:35:35.118Z,1.20
2018-07-02T13:38:03.013Z,1.10
2018-07-02T13:40:31.317Z,1.30
2018-07-02T13:42:59.429Z,1.27
2018-07-02T13:45:27.344Z,1.40
2018-07-02T13:47:55.569Z,1.33
2018-07-02T13:50:23.699Z,1.20
2018-07-02T13:52:51.868Z,1.37
2018-07-02T13:55:20.090Z,1.00
2018-07-02T13:57:49.523Z,1.30
2018-07-02T14:00:17.778Z,1.03
2018-07-02T14:02:45.897Z,1.50
2018-07-02T14:05:14.049Z,1.17
2018-07-02T14:07:42.214Z,1.20
2018-07-02T14:10:10.374Z,1.10
2018-07-02T14:12:38.560Z,1.30
2018-07-02T14:15:07.400Z,1.20
2018-07-02T14:17:35.573Z,1.13
2018-07-02T14:20:03.940Z,1.30
2018-07-02T14:22:32.261Z,1.10
2018-07-02T14:25:00.646Z,1.10
2018-07-02T14:27:28.990Z,1.33
2018-07-02T14:29:57.447Z,1.30
2018-07-02T14:32:25.646Z,0.83
2018-07-02T14:34:53.996Z,1.10
2018-07-02T14:37:22.281Z,1.00
2018-07-02T14:39:50.579Z,1.23
2018-07-02T14:42:18.571Z,1.10
2018-07-02T14:44:47.002Z,1.00
2018-07-02T14:47:15.263Z,0.90
2018-07-02T14:49:43.785Z,1.10
2018-07-02T14:52:12.242Z,1.30
2018-07-02T14:54:40.553Z,1.10
2018-07-02T14:57:08.889Z,1.20
2018-07-02T14:59:37.255Z,1.20
2018-07-02T15:02:05.677Z,1.07
2018-07-02T15:04:34.063Z,1.00
2018-07-02T15:07:02.365Z,1.10
2018-07-02T15:09:30.763Z,1.07
2018-07-02T15:11:59.065Z,1.10
2018-07-02T15:14:27.294Z,0.90
2018-07-02T15:16:55.521Z,1.20
2018-07-02T15:19:23.969Z,1.00
2018-07-02T15:21:52.371Z,1.23
2018-07-02T15:24:20.779Z,1.03
2018-07-02T15:26:49.158Z,1.20
2018-07-02T15:29:17.211Z,1.13
2018-07-02T15:31:46.058Z,1.20
2018-07-02T15:34:14.366Z,1.10
2018-07-02T15:36:42.719Z,1.00
2018-07-02T15:39:11.381Z,1.10
2018-07-02T15:41:39.810Z,1.07
2018-07-02T15:44:08.122Z,1.07
2018-07-02T15:46:36.463Z,1.17
2018-07-02T15:49:04.756Z,1.10
2018-07-02T15:51:33.290Z,0.90
2018-07-02T15:54:01.954Z,1.03
2018-07-02T15:56:30.091Z,1.20
2018-07-02T15:58:58.630Z,0.93
2018-07-02T16:01:26.839Z,1.00
2018-07-02T16:03:55.213Z,1.00
2018-07-02T16:06:23.574Z,1.20
2018-07-02T16:08:51.870Z,1.10
2018-07-02T16:11:20.322Z,1.03
2018-07-02T16:13:48.589Z,1.20
2018-07-02T16:16:16.826Z,1.23
2018-07-02T16:18:44.883Z,1.00
2018-07-02T16:21:14.196Z,1.23
2018-07-02T16:23:42.664Z,1.10
2018-07-02T16:26:10.752Z,1.20
2018-07-02T16:28:39.185Z,1.30
2018-07-02T16:31:07.585Z,1.00
2018-07-02T16:33:35.977Z,0.87
2018-07-02T16:36:04.185Z,1.33
2018-07-02T16:38:32.690Z,1.07
2018-07-02T16:41:01.501Z,1.20
2018-07-02T16:43:30.123Z,0.90
2018-07-02T16:45:58.537Z,1.00
2018-07-02T16:48:26.849Z,1.20
2018-07-02T16:50:55.132Z,1.00
2018-07-02T16:53:23.559Z,0.80
2018-07-02T16:55:52.110Z,1.20
2018-07-02T16:58:20.654Z,1.50
2018-07-02T17:00:48.939Z,1.07
2018-07-02T17:03:17.405Z,0.90
2018-07-02T17:05:47.940Z,1.00
2018-07-02T17:08:16.431Z,1.07
2018-07-02T17:10:44.782Z,1.20
2018-07-02T17:13:13.366Z,1.30
2018-07-02T17:15:41.738Z,1.17
2018-07-02T17:18:10.219Z,1.80
2018-07-02T17:20:38.666Z,1.50
2018-07-02T17:23:06.982Z,1.20
2018-07-02T17:25:35.336Z,1.50
2018-07-02T17:28:04.061Z,1.20
2018-07-02T17:30:32.429Z,1.50
2018-07-02T17:33:00.686Z,1.20
2018-07-02T17:35:29.083Z,1.40
2018-07-02T17:37:57.495Z,1.20
2018-07-02T17:40:27.379Z,0.90
2018-07-02T17:42:55.851Z,1.00
2018-07-02T17:45:26.519Z,1.40
2018-07-02T17:47:55.766Z,0.80
2018-07-02T17:50:24.485Z,0.83
2018-07-02T17:52:54.085Z,1.13
2018-07-02T17:55:22.699Z,0.80
2018-07-02T17:57:51.195Z,1.00
2018-07-02T18:00:19.541Z,0.90
2018-07-02T18:02:54.135Z,0.90
2018-07-02T18:05:24.598Z,1.00
2018-07-02T18:07:52.946Z,0.83
2018-07-02T18:10:21.341Z,0.93
2018-07-02T18:12:49.812Z,0.70
2018-07-02T18:15:18.167Z,0.97
2018-07-02T18:17:46.537Z,0.90
2018-07-02T18:20:15.373Z,0.77
2018-07-02T18:22:43.853Z,1.10
2018-07-02T18:25:12.034Z,0.97
2018-07-02T18:27:40.207Z,0.97
2018-07-02T18:30:08.402Z,0.90
2018-07-02T18:32:36.541Z,0.90
2018-07-02T18:35:04.846Z,1.20
2018-07-02T18:37:33.337Z,1.00
2018-07-02T18:40:01.947Z,1.10
2018-07-02T18:42:30.445Z,0.90
2018-07-02T18:44:58.907Z,1.00
2018-07-02T18:47:27.868Z,1.10
2018-07-02T18:49:56.385Z,1.10
2018-07-02T18:52:24.754Z,0.93
2018-07-02T18:54:53.312Z,0.93
2018-07-02T18:57:21.797Z,1.00
2018-07-02T18:59:50.321Z,0.90
2018-07-02T19:02:18.807Z,1.10
2018-07-02T19:04:47.345Z,1.30
2018-07-02T19:07:18.519Z,1.03
2018-07-02T19:09:47.102Z,1.00
2018-07-02T19:12:15.470Z,1.70
2018-07-02T19:14:44.593Z,1.43
2018-07-02T19:17:13.016Z,1.43
2018-07-02T19:19:41.331Z,1.20
2018-07-02T19:22:10.195Z,1.53
2018-07-02T19:24:38.793Z,1.13
2018-07-02T19:27:08.251Z,1.20
2018-07-02T19:29:37.009Z,1.03
2018-07-02T19:32:05.537Z,1.00
2018-07-02T19:34:34.740Z,1.60
2018-07-02T19:37:15.280Z,1.27
2018-07-02T19:39:44.895Z,1.20
2018-07-02T19:42:13.434Z,1.40
2018-07-02T19:44:41.990Z,1.10
2018-07-02T19:47:10.695Z,1.10
2018-07-02T19:49:39.204Z,2.00
2018-07-02T19:52:07.695Z,1.10
2018-07-02T19:54:36.379Z,1.20
2018-07-02T19:57:04.890Z,1.20
2018-07-02T19:59:34.654Z,1.10
2018-07-02T20:02:04.033Z,0.80
2018-07-02T20:04:33.767Z,1.30
2018-07-02T20:07:02.275Z,1.53
2018-07-02T20:09:30.695Z,1.10
2018-07-02T20:11:59.160Z,1.20
2018-07-02T20:14:27.699Z,1.70
2018-07-02T20:16:56.084Z,1.80
2018-07-02T20:19:24.632Z,1.70
2018-07-02T20:21:53.336Z,1.87
2018-07-02T20:24:21.828Z,1.40
2018-07-02T20:26:50.257Z,1.50
2018-07-02T20:29:18.750Z,1.33
2018-07-02T20:31:47.585Z,1.90
2018-07-02T20:34:16.363Z,1.93
2018-07-02T20:36:44.838Z,1.93
2018-07-02T20:39:13.413Z,1.53
2018-07-02T20:41:41.879Z,1.50
2018-07-02T20:44:10.509Z,1.63
2018-07-02T20:46:39.179Z,1.67
2018-07-02T20:49:07.743Z,1.63
2018-07-02T20:51:36.323Z,1.93
2018-07-02T20:54:05.093Z,2.43
2018-07-02T20:56:33.662Z,1.70
2018-07-02T20:59:02.187Z,1.87
2018-07-02T21:01:30.680Z,1.80
2018-07-02T21:03:59.132Z,2.10
2018-07-02T21:06:27.900Z,2.00
2018-07-02T21:08:56.165Z,2.20
2018-07-02T21:11:26.489Z,1.83
2018-07-02T21:13:54.873Z,1.60
2018-07-02T21:16:23.017Z,1.80
2018-07-02T21:18:51.192Z,1.60
2018-07-02T21:21:19.378Z,1.30
2018-07-02T21:23:47.485Z,1.60
2018-07-02T21:26:15.631Z,1.67
2018-07-02T21:28:43.828Z,2.10
2018-07-02T21:31:11.979Z,1.50
2018-07-02T21:33:40.325Z,1.70
2018-07-02T21:36:08.442Z,1.60
2018-07-02T21:38:36.565Z,1.53
2018-07-02T21:41:04.704Z,1.40
2018-07-02T21:43:32.846Z,1.47
2018-07-02T21:46:00.982Z,1.60
2018-07-02T21:48:29.160Z,1.40
2018-07-02T21:50:57.231Z,1.43
2018-07-02T21:53:25.378Z,1.60
2018-07-02T21:55:53.526Z,1.63
2018-07-02T21:58:21.652Z,1.70
2018-07-02T22:00:49.782Z,1.50
2018-07-02T22:03:17.958Z,1.50
2018-07-02T22:05:45.835Z,1.50
2018-07-02T22:08:13.954Z,1.73
2018-07-02T22:10:42.095Z,1.60
2018-07-02T22:13:10.202Z,1.53
2018-07-02T22:15:38.350Z,1.53
2018-07-02T22:18:06.489Z,1.57
2018-07-02T22:20:34.689Z,1.57
2018-07-02T22:23:02.814Z,1.47
2018-07-02T22:25:31.042Z,1.60
2018-07-02T22:27:59.137Z,1.43
2018-07-02T22:30:27.302Z,1.50
2018-07-02T22:32:55.430Z,1.70
2018-07-02T22:35:23.609Z,1.43
2018-07-02T22:37:51.814Z,1.47
2018-07-02T22:40:20.010Z,2.00
2018-07-02T22:42:48.178Z,1.50
2018-07-02T22:45:16.459Z,1.40
2018-07-02T22:47:44.600Z,1.90
2018-07-02T22:50:12.709Z,1.50
2018-07-02T22:52:40.851Z,1.60
2018-07-02T22:55:09.054Z,1.60
2018-07-02T22:57:37.218Z,1.50
2018-07-02T23:02:58.799Z,1.30
2018-07-02T23:05:26.966Z,1.97
2018-07-02T23:07:55.114Z,1.40
2018-07-02T23:10:23.239Z,1.57
2018-07-02T23:12:51.377Z,1.60
2018-07-02T23:15:19.780Z,2.00
2018-07-02T23:17:47.918Z,1.47
2018-07-02T23:20:16.070Z,1.90
2018-07-02T23:22:54.513Z,1.60
2018-07-02T23:25:22.418Z,1.93
2018-07-02T23:27:50.537Z,1.90
2018-07-02T23:30:19.109Z,2.20
2018-07-02T23:32:47.600Z,1.90
2018-07-02T23:35:16.013Z,1.80
2018-07-02T23:37:44.105Z,1.50
2018-07-02T23:40:12.226Z,1.47
2018-07-02T23:42:40.349Z,1.50
2018-07-02T23:45:08.489Z,1.80
2018-07-02T23:47:36.625Z,1.60
2018-07-02T23:50:04.833Z,1.50
2018-07-02T23:52:33.074Z,1.53
2018-07-02T23:55:01.217Z,1.73
2018-07-02T23:57:29.392Z,2.20
2018-07-02T23:59:57.664Z,1.70
